createdAt,value
2023-04-22T04:44:17.151Z,97511.19
2023-04-22T04:46:44.291Z,97517.88
2023-04-22T04:49:12.713Z,97515.00
2023-04-22T04:51:51.979Z,97527.72
2023-04-22T04:54:19.148Z,97542.19
2023-04-22T04:56:46.396Z,97536.19
2023-04-22T04:59:13.760Z,97546.88
2023-04-22T05:01:41.461Z,97563.72
2023-04-22T05:04:11.605Z,97550.03
2023-04-22T05:06:41.321Z,97531.84
2023-04-22T05:09:08.081Z,97586.38
2023-04-22T05:11:35.571Z,97595.56
2023-04-22T05:14:08.702Z,97573.88
2023-04-22T05:16:40.352Z,97560.56
2023-04-22T05:19:08.457Z,97567.38
2023-04-22T05:21:37.796Z,97577.38
2023-04-22T05:24:04.536Z,97577.72
2023-04-22T05:26:31.538Z,97558.00
2023-04-22T05:28:58.488Z,97574.31
2023-04-22T05:31:25.307Z,97593.50
2023-04-22T05:33:51.860Z,97612.22
2023-04-22T05:36:18.582Z,97640.06
2023-04-22T05:38:46.995Z,97629.56
2023-04-22T05:41:13.982Z,97654.44
2023-04-22T05:43:41.123Z,97629.56
2023-04-22T05:46:13.779Z,97639.75
2023-04-22T05:48:42.140Z,97672.25
2023-04-22T05:51:18.957Z,97711.44
2023-04-22T05:53:45.729Z,97717.91
2023-04-22T05:56:12.356Z,97703.13
2023-04-22T05:58:38.901Z,97709.16
2023-04-22T06:01:11.856Z,97727.72
2023-04-22T06:03:57.334Z,97733.75
2023-04-22T06:06:25.976Z,97736.22
2023-04-22T06:08:52.881Z,97749.09
2023-04-22T06:11:19.741Z,97731.06
2023-04-22T06:13:46.352Z,97738.69
2023-04-22T06:16:12.937Z,97749.50
2023-04-22T06:18:39.590Z,97731.94
2023-04-22T06:21:12.797Z,97767.88
2023-04-22T06:23:40.009Z,97813.16
2023-04-22T06:26:06.682Z,97795.09
2023-04-22T06:28:35.224Z,97799.88
2023-04-22T06:31:06.179Z,97827.25
2023-04-22T06:33:32.864Z,97812.88
2023-04-22T06:36:01.107Z,97824.63
2023-04-22T06:38:28.793Z,97847.72
2023-04-22T06:41:17.788Z,97839.06
2023-04-22T06:43:49.640Z,97868.44
2023-04-22T06:46:35.032Z,97862.34
2023-04-22T06:49:21.622Z,97849.00
2023-04-22T06:52:08.516Z,97857.94
2023-04-22T06:54:35.240Z,97867.16
2023-04-22T06:57:01.884Z,97894.31
2023-04-22T06:59:29.172Z,97893.13
2023-04-22T07:01:55.954Z,97911.63
2023-04-22T07:04:22.522Z,97941.53
2023-04-22T07:06:49.653Z,97967.34
2023-04-22T07:09:17.058Z,97952.41
2023-04-22T07:11:44.791Z,97956.06
2023-04-22T07:14:18.173Z,97955.47
2023-04-22T07:16:44.840Z,97960.41
2023-04-22T07:19:11.387Z,97947.94
2023-04-22T07:21:38.009Z,97959.84
2023-04-22T07:24:04.842Z,97945.84
2023-04-22T07:26:32.327Z,97952.53
2023-04-22T07:28:58.818Z,97942.28
2023-04-22T07:31:25.382Z,97952.19
2023-04-22T07:33:51.894Z,97946.56
2023-04-22T07:36:18.449Z,97950.81
2023-04-22T07:38:44.982Z,97949.34
2023-04-22T07:41:11.473Z,97954.13
2023-04-22T07:43:37.970Z,97954.91
2023-04-22T07:46:04.745Z,97952.41
2023-04-22T07:48:31.390Z,97959.44
2023-04-22T07:50:57.872Z,97955.53
2023-04-22T07:53:24.467Z,97962.19
2023-04-22T07:55:51.030Z,97960.03
2023-04-22T07:58:17.613Z,97966.38
2023-04-22T08:00:45.389Z,97957.72
2023-04-22T08:03:15.202Z,97961.50
2023-04-22T08:05:42.036Z,97969.41
2023-04-22T08:08:08.540Z,97965.16
2023-04-22T08:10:35.355Z,97973.41
2023-04-22T08:13:01.953Z,97962.97
2023-04-22T08:15:28.709Z,97961.09
2023-04-22T08:17:55.437Z,97966.25
2023-04-22T08:20:22.289Z,97965.16
2023-04-22T08:22:50.512Z,97964.78
2023-04-22T08:25:17.151Z,97954.03
2023-04-22T08:27:43.649Z,97963.97
2023-04-22T08:30:10.414Z,97956.97
2023-04-22T08:32:37.874Z,97960.63
2023-04-22T08:35:07.650Z,97971.53
2023-04-22T08:37:34.807Z,97977.53
2023-04-22T08:40:01.523Z,97969.13
2023-04-22T08:42:28.172Z,97966.75
2023-04-22T08:44:55.903Z,97964.06
2023-04-22T08:47:23.792Z,97968.28
2023-04-22T08:49:51.479Z,97965.66
2023-04-22T08:52:18.304Z,97967.44
2023-04-22T08:54:44.880Z,97955.09
2023-04-22T08:57:13.122Z,97956.88
2023-04-22T08:59:41.431Z,97948.19
2023-04-22T09:02:17.313Z,97939.50
2023-04-22T09:04:48.683Z,97941.69
2023-04-22T09:07:24.949Z,97931.47
2023-04-22T09:09:52.531Z,97937.19
2023-04-22T09:12:22.304Z,97921.19
2023-04-22T09:14:49.337Z,97923.38
2023-04-22T09:17:30.870Z,97926.16
2023-04-22T09:20:01.842Z,97915.84
2023-04-22T09:22:39.627Z,97919.38
2023-04-22T09:25:07.962Z,97915.72
2023-04-22T09:27:35.527Z,97918.34
2023-04-22T09:30:08.821Z,97913.59
2023-04-22T09:32:39.571Z,97919.63
2023-04-22T09:35:06.920Z,97909.47
2023-04-22T09:37:42.877Z,97923.50
2023-04-22T09:40:18.264Z,97914.25
2023-04-22T09:42:52.214Z,97915.19
2023-04-22T09:45:29.411Z,97915.00
2023-04-22T09:47:57.613Z,97912.56
2023-04-22T09:50:26.788Z,97909.22
2023-04-22T09:53:01.917Z,97909.53
2023-04-22T09:55:29.886Z,97907.06
2023-04-22T09:57:57.786Z,97906.81
2023-04-22T10:00:29.348Z,97909.81
2023-04-22T10:02:56.195Z,97902.09
2023-04-22T10:05:22.779Z,97902.44
2023-04-22T10:07:49.915Z,97901.28
2023-04-22T10:10:16.652Z,97899.66
2023-04-22T10:12:43.308Z,97890.72
2023-04-22T10:15:10.301Z,97896.03
2023-04-22T10:17:39.387Z,97895.81
2023-04-22T10:20:13.561Z,97886.06
2023-04-22T10:22:44.973Z,97861.75
2023-04-22T10:25:13.382Z,97875.38
2023-04-22T10:27:40.547Z,97891.94
2023-04-22T10:30:10.192Z,97888.44
2023-04-22T10:32:39.958Z,97874.50
2023-04-22T10:35:34.987Z,97873.44
2023-04-22T10:38:07.843Z,97874.25
2023-04-22T10:41:00.408Z,97869.97
2023-04-22T10:43:42.459Z,97869.63
2023-04-22T10:46:28.938Z,97869.81
2023-04-22T10:48:56.956Z,97854.47
2023-04-22T10:51:40.799Z,97844.31
2023-04-22T10:54:08.355Z,97844.06
2023-04-22T10:56:35.411Z,97842.72
2023-04-22T10:59:17.049Z,97843.91
2023-04-22T11:01:44.597Z,97841.59
2023-04-22T11:04:23.055Z,97845.69
2023-04-22T11:07:16.042Z,97844.44
2023-04-22T11:09:47.414Z,97832.56
2023-04-22T11:12:35.742Z,97842.13
2023-04-22T11:15:06.633Z,97844.16
2023-04-22T11:17:33.474Z,97815.56
2023-04-22T11:20:00.700Z,97841.88
2023-04-22T11:22:27.601Z,97833.69
2023-04-22T11:24:58.855Z,97830.25
2023-04-22T11:27:26.839Z,97834.97
2023-04-22T11:30:10.138Z,97823.50
2023-04-22T11:32:39.539Z,97833.06
2023-04-22T11:35:08.596Z,97824.06
2023-04-22T11:37:48.784Z,97823.34
2023-04-22T11:40:30.533Z,97819.66
2023-04-22T11:42:59.552Z,97818.63
2023-04-22T11:45:27.894Z,97823.88
2023-04-22T11:47:55.171Z,97830.88
2023-04-22T11:50:24.655Z,97811.94
2023-04-22T11:52:55.352Z,97831.00
2023-04-22T11:55:32.760Z,97813.84
2023-04-22T11:58:10.490Z,97823.91
2023-04-22T12:00:40.440Z,97821.91
2023-04-22T12:03:08.509Z,97800.13
2023-04-22T12:05:45.146Z,97811.16
2023-04-22T12:08:12.568Z,97812.22
2023-04-22T12:10:48.352Z,97800.88
2023-04-22T12:13:26.236Z,97802.31
2023-04-22T12:16:01.535Z,97805.03
2023-04-22T12:18:41.174Z,97801.91
2023-04-22T12:21:07.649Z,97805.81
2023-04-22T12:23:50.088Z,97798.41
2023-04-22T12:26:18.149Z,97791.97
2023-04-22T12:28:45.714Z,97781.78
2023-04-22T12:31:14.561Z,97797.97
2023-04-22T12:33:42.942Z,97786.66
2023-04-22T12:36:09.786Z,97802.31
2023-04-22T12:38:37.998Z,97789.81
2023-04-22T12:41:06.388Z,97793.34
2023-04-22T12:43:36.298Z,97788.25
2023-04-22T12:46:04.070Z,97793.94
2023-04-22T12:48:31.034Z,97796.78
2023-04-22T12:50:58.441Z,97777.91
2023-04-22T12:53:27.000Z,97770.16
2023-04-22T12:55:53.920Z,97767.69
2023-04-22T12:58:20.504Z,97764.34
2023-04-22T13:00:47.017Z,97763.38
2023-04-22T13:03:13.696Z,97772.25
2023-04-22T13:05:40.295Z,97779.19
2023-04-22T13:08:08.057Z,97761.16
2023-04-22T13:10:35.264Z,97769.31
2023-04-22T13:13:16.858Z,97763.53
2023-04-22T13:15:54.049Z,97761.13
2023-04-22T13:18:22.743Z,97745.41
2023-04-22T13:20:49.300Z,97732.84
2023-04-22T13:23:17.065Z,97720.22
2023-04-22T13:25:44.108Z,97736.34
2023-04-22T13:28:11.565Z,97733.25
2023-04-22T13:30:39.116Z,97739.91
2023-04-22T13:33:05.676Z,97722.72
2023-04-22T13:35:32.211Z,97728.34
2023-04-22T13:37:58.799Z,97730.25
2023-04-22T13:40:27.239Z,97715.47
2023-04-22T13:42:54.344Z,97713.28
2023-04-22T13:45:20.971Z,97714.41
2023-04-22T13:47:47.566Z,97712.63
2023-04-22T13:50:14.050Z,97710.09
2023-04-22T13:52:41.419Z,97713.75
2023-04-22T13:55:08.677Z,97700.88
2023-04-22T13:57:35.180Z,97707.88
2023-04-22T14:00:01.839Z,97710.66
2023-04-22T14:02:38.510Z,97705.50
2023-04-22T14:05:05.821Z,97698.41
2023-04-22T14:07:32.290Z,97685.94
2023-04-22T14:09:58.768Z,97700.16
2023-04-22T14:12:25.279Z,97700.25
2023-04-22T14:14:51.822Z,97700.44
2023-04-22T14:17:19.710Z,97698.50
2023-04-22T14:19:46.204Z,97682.81
2023-04-22T14:22:12.743Z,97689.03
2023-04-22T14:24:39.259Z,97697.78
2023-04-22T14:27:05.794Z,97684.03
2023-04-22T14:29:32.454Z,97691.38
2023-04-22T14:31:59.380Z,97701.22
2023-04-22T14:34:27.078Z,97688.88
2023-04-22T14:36:53.691Z,97702.72
2023-04-22T14:39:20.276Z,97697.38
2023-04-22T14:41:46.919Z,97689.63
2023-04-22T14:44:14.205Z,97688.19
2023-04-22T14:46:41.117Z,97686.25
2023-04-22T14:49:07.872Z,97678.91
2023-04-22T14:51:35.438Z,97687.38
2023-04-22T14:54:02.168Z,97683.56
2023-04-22T14:56:28.649Z,97686.03
2023-04-22T14:58:55.255Z,97681.28
2023-04-22T15:01:22.941Z,97682.94
2023-04-22T15:03:51.438Z,97669.59
2023-04-22T15:06:18.106Z,97676.44
2023-04-22T15:08:44.629Z,97674.16
2023-04-22T15:11:11.158Z,97673.41
2023-04-22T15:13:37.672Z,97682.00
2023-04-22T15:16:04.501Z,97671.25
2023-04-22T15:18:31.055Z,97660.41
2023-04-22T15:20:57.578Z,97666.09
2023-04-22T15:23:24.283Z,97671.97
2023-04-22T15:25:50.898Z,97660.59
2023-04-22T15:28:17.589Z,97671.22
2023-04-22T15:30:44.277Z,97671.03
2023-04-22T15:33:10.815Z,97669.22
2023-04-22T15:35:37.373Z,97654.13
2023-04-22T15:38:06.092Z,97661.13
2023-04-22T15:40:32.579Z,97652.78
2023-04-22T15:42:59.079Z,97666.41
2023-04-22T15:45:25.585Z,97665.44
2023-04-22T15:47:53.583Z,97675.84
2023-04-22T15:50:23.157Z,97668.56
2023-04-22T15:52:49.677Z,97661.03
2023-04-22T15:55:16.241Z,97677.00
2023-04-22T15:57:42.768Z,97668.31
2023-04-22T16:00:13.516Z,97665.53
2023-04-22T16:02:41.894Z,97671.81
2023-04-22T16:05:08.805Z,97659.56
2023-04-22T16:07:35.388Z,97670.47
2023-04-22T16:10:02.116Z,97673.06
2023-04-22T16:12:28.864Z,97672.81
2023-04-22T16:14:55.359Z,97670.19
2023-04-22T16:17:21.923Z,97675.03
2023-04-22T16:19:48.980Z,97673.00
2023-04-22T16:22:15.465Z,97672.06
2023-04-22T16:24:44.034Z,97671.00
2023-04-22T16:27:16.082Z,97672.66
2023-04-22T16:29:43.048Z,97675.38
2023-04-22T16:32:09.869Z,97677.25
2023-04-22T16:34:36.895Z,97674.94
2023-04-22T16:37:04.175Z,97677.38
2023-04-22T16:39:31.055Z,97659.16
2023-04-22T16:41:57.746Z,97671.22
2023-04-22T16:44:24.257Z,97681.75
2023-04-22T16:46:50.914Z,97682.22
2023-04-22T16:49:17.432Z,97675.88
2023-04-22T16:51:44.025Z,97683.00
2023-04-22T16:54:10.582Z,97676.97
2023-04-22T16:56:37.719Z,97678.75
2023-04-22T16:59:04.296Z,97669.91
2023-04-22T17:01:33.292Z,97672.22
2023-04-22T17:04:19.073Z,97681.00
2023-04-22T17:07:06.097Z,97685.63
2023-04-22T17:09:52.935Z,97677.50
2023-04-22T17:12:39.850Z,97670.53
2023-04-22T17:15:26.867Z,97681.13
2023-04-22T17:18:15.120Z,97675.81
2023-04-22T17:21:03.402Z,97676.63
2023-04-22T17:23:50.865Z,97673.09
2023-04-22T17:26:37.895Z,97667.41
2023-04-22T17:29:24.880Z,97659.31
2023-04-22T17:32:11.815Z,97665.94
2023-04-22T17:34:58.834Z,97660.13
2023-04-22T17:37:45.833Z,97669.81
2023-04-22T17:40:32.766Z,97671.94
2023-04-22T17:43:20.789Z,97665.44
2023-04-22T17:46:09.183Z,97652.09
2023-04-22T17:48:56.518Z,97646.66
2023-04-22T17:51:43.645Z,97646.31
2023-04-22T17:54:30.552Z,97635.47
2023-04-22T17:57:17.442Z,97644.19
2023-04-22T18:00:04.728Z,97645.31
2023-04-22T18:02:57.776Z,97643.66
2023-04-22T18:05:44.871Z,97640.34
2023-04-22T18:08:31.926Z,97650.59
2023-04-22T18:11:18.938Z,97653.38
2023-04-22T18:14:05.878Z,97660.09
2023-04-22T18:16:52.929Z,97662.81
2023-04-22T18:19:40.040Z,97662.88
2023-04-22T18:22:27.150Z,97659.91
2023-04-22T18:25:14.184Z,97665.44
2023-04-22T18:28:01.082Z,97660.94
2023-04-22T18:30:48.016Z,97668.09
2023-04-22T18:33:35.429Z,97662.13
2023-04-22T18:36:22.419Z,97671.16
2023-04-22T18:39:09.950Z,97666.25
2023-04-22T18:41:59.649Z,97667.63
2023-04-22T18:44:46.705Z,97670.66
2023-04-22T18:47:33.620Z,97666.25
2023-04-22T18:50:22.241Z,97682.09
2023-04-22T18:53:09.141Z,97674.63
2023-04-22T18:55:55.983Z,97669.59
2023-04-22T18:58:42.854Z,97693.84
2023-04-22T19:01:29.832Z,97693.25
2023-04-22T19:04:16.845Z,97694.75
2023-04-22T19:07:03.743Z,97692.34
2023-04-22T19:09:50.674Z,97675.88
2023-04-22T19:12:37.668Z,97702.41
2023-04-22T19:15:24.562Z,97699.78
2023-04-22T19:18:11.437Z,97698.38
2023-04-22T19:20:58.410Z,97704.59
2023-04-22T19:23:45.278Z,97696.63
2023-04-22T19:26:32.374Z,97713.19
2023-04-22T19:29:19.228Z,97719.16
2023-04-22T19:32:07.104Z,97712.50
2023-04-22T19:34:54.073Z,97645.41
2023-04-22T19:37:41.399Z,97483.25
2023-04-22T19:40:29.222Z,97475.63
